Time;durP1;ratioP1;P1;durP2;ratioP2;P2;SDS_P1;SDS_P2;PMS_P1;PMS_P2;Temp;Humidity;BMP_temperature;BMP_pressure;BME280_temperature;BME280_humidity;BME280_pressure;Samples;Min_cycle;Max_cycle;Signal;HPM_P1;HPM_P2
2023/05/01 00:00:24;;;;;;;5.80;3.10;;;13.20;99.90;;;;;;4979772;28;20463;-82
2023/05/01 00:02:49;;;;;;;12.43;3.63;;;13.20;99.90;;;;;;4975487;28;20212;-82
2023/05/01 00:05:15;;;;;;;11.07;2.73;;;13.30;99.90;;;;;;4980591;28;20212;-82
2023/05/01 00:07:41;;;;;;;9.40;3.10;;;13.30;99.90;;;;;;4976095;28;20185;-82
2023/05/01 00:10:07;;;;;;;14.20;3.83;;;13.30;99.90;;;;;;4978276;28;20188;-83
2023/05/01 00:12:32;;;;;;;12.87;3.20;;;13.30;99.90;;;;;;4978864;28;20181;-82
2023/05/01 00:14:58;;;;;;;13.13;3.07;;;13.30;99.90;;;;;;4978576;28;20459;-81
2023/05/01 00:17:24;;;;;;;7.00;2.70;;;13.30;99.90;;;;;;4969865;28;21008;-80
2023/05/01 00:19:53;;;;;;;5.00;3.03;;;13.30;99.90;;;;;;4973002;28;20203;-82
2023/05/01 00:22:18;;;;;;;7.90;2.77;;;13.30;99.90;;;;;;4990943;28;20479;-82
2023/05/01 00:24:46;;;;;;;9.87;3.00;;;13.30;99.90;;;;;;4988084;28;20534;-82
2023/05/01 00:27:12;;;;;;;5.30;2.87;;;13.30;99.90;;;;;;4978026;28;20275;-82
2023/05/01 00:29:38;;;;;;;3.67;2.70;;;13.30;99.90;;;;;;4991358;28;20892;-83
2023/05/01 00:32:04;;;;;;;7.90;2.97;;;13.30;99.90;;;;;;4978973;28;20451;-83
2023/05/01 00:34:30;;;;;;;3.40;3.10;;;13.30;99.90;;;;;;4975894;28;20243;-82
2023/05/01 00:36:55;;;;;;;8.37;3.30;;;13.30;99.90;;;;;;4979891;28;20451;-83
2023/05/01 00:39:21;;;;;;;3.40;2.93;;;13.30;99.90;;;;;;4981696;28;20244;-82
2023/05/01 00:41:46;;;;;;;5.47;3.50;;;13.30;99.90;;;;;;4981109;28;20658;-82
2023/05/01 00:44:12;;;;;;;3.50;3.00;;;13.40;99.90;;;;;;4980678;28;20294;-85
2023/05/01 00:46:38;;;;;;;4.53;3.23;;;13.40;99.90;;;;;;4980485;28;20188;-82
2023/05/01 00:49:03;;;;;;;4.03;2.90;;;13.40;99.90;;;;;;4980753;28;20212;-83
2023/05/01 00:51:30;;;;;;;8.10;3.00;;;13.40;99.90;;;;;;4978402;28;20184;-82
2023/05/01 00:53:58;;;;;;;4.57;2.97;;;13.50;99.90;;;;;;4980266;28;20201;-82
2023/05/01 00:56:25;;;;;;;3.23;2.90;;;13.50;99.90;;;;;;4991963;28;20439;-83
2023/05/01 00:58:52;;;;;;;4.60;3.30;;;13.50;99.90;;;;;;4971072;28;20982;-82
2023/05/01 01:01:19;;;;;;;10.40;3.37;;;13.50;99.90;;;;;;4982248;28;20474;-84
2023/05/01 01:03:45;;;;;;;5.20;3.23;;;13.50;99.90;;;;;;4982848;28;20443;-82
2023/05/01 01:06:38;;;;;;;3.70;3.00;;;13.50;99.90;;;;;;4984546;28;20437;-82
2023/05/01 01:09:27;;;;;;;3.93;3.40;;;13.50;99.90;;;;;;4979553;28;20194;-82
2023/05/01 01:12:14;;;;;;;6.40;3.50;;;13.40;99.90;;;;;;5000211;28;20802;-83
2023/05/01 01:14:49;;;;;;;7.10;4.07;;;13.40;99.90;;;;;;4974481;28;20475;-83
2023/05/01 01:17:28;;;;;;;5.70;3.90;;;13.40;99.90;;;;;;4978517;28;20439;-82
2023/05/01 01:20:31;;;;;;;4.90;3.60;;;13.50;99.90;;;;;;4998876;28;20494;-84
2023/05/01 01:23:22;;;;;;;6.63;3.17;;;13.50;99.90;;;;;;4982778;28;20817;-84
2023/05/01 01:26:32;;;;;;;4.53;3.43;;;13.50;99.90;;;;;;4980108;28;20459;-83
2023/05/01 01:29:18;;;;;;;6.37;3.10;;;13.50;99.90;;;;;;4947830;29;20500;-84
2023/05/01 01:32:05;;;;;;;6.77;2.93;;;13.40;99.90;;;;;;4939365;29;20499;-83
2023/05/01 01:34:43;;;;;;;8.27;3.57;;;13.40;99.90;;;;;;4966044;28;20474;-81
2023/05/01 01:37:39;;;;;;;10.03;3.03;;;13.40;99.90;;;;;;4982339;28;20974;-80
2023/05/01 01:40:30;;;;;;;5.47;3.53;;;13.40;99.90;;;;;;4977055;28;20467;-80
2023/05/01 01:43:02;;;;;;;5.70;3.30;;;13.30;99.90;;;;;;4983522;28;20443;-82
2023/05/01 01:45:35;;;;;;;8.10;3.60;;;13.30;99.90;;;;;;4982945;28;20478;-82
2023/05/01 01:48:03;;;;;;;6.37;3.00;;;13.20;99.90;;;;;;4983799;28;20439;-82
2023/05/01 01:50:30;;;;;;;9.23;3.33;;;13.10;99.90;;;;;;4981341;28;20478;-81
2023/05/01 01:53:00;;;;;;;6.43;3.83;;;13.10;99.90;;;;;;4984511;28;20463;-82
2023/05/01 01:55:30;;;;;;;5.70;3.53;;;13.00;99.90;;;;;;4983816;28;20456;-81
2023/05/01 01:57:58;;;;;;;6.30;3.50;;;13.00;99.90;;;;;;4976552;28;20479;-83
2023/05/01 02:00:24;;;;;;;6.90;3.97;;;12.90;99.90;;;;;;4982228;28;20478;-82
2023/05/01 02:02:51;;;;;;;7.93;3.47;;;12.90;99.90;;;;;;4980840;28;21117;-83
2023/05/01 02:05:18;;;;;;;6.17;3.83;;;12.80;99.90;;;;;;4981763;28;20471;-84
2023/05/01 02:07:48;;;;;;;5.67;3.47;;;12.70;99.90;;;;;;4983038;28;20439;-80
2023/05/01 02:10:16;;;;;;;6.13;3.70;;;12.70;99.90;;;;;;4982566;28;20450;-82
2023/05/01 02:12:45;;;;;;;6.60;3.70;;;12.70;99.90;;;;;;4976367;28;20519;-81
2023/05/01 02:15:11;;;;;;;6.40;4.17;;;12.70;99.90;;;;;;4980667;28;20462;-83
2023/05/01 02:17:40;;;;;;;4.00;3.53;;;12.70;99.90;;;;;;4982028;28;20439;-81
2023/05/01 02:20:08;;;;;;;6.73;4.07;;;12.70;99.90;;;;;;4978439;28;20474;-80
2023/05/01 02:22:34;;;;;;;4.63;3.57;;;12.70;99.90;;;;;;4972881;28;20440;-81
2023/05/01 02:25:02;;;;;;;5.87;3.87;;;12.70;99.90;;;;;;4972703;28;20510;-81
2023/05/01 02:27:37;;;;;;;4.90;3.97;;;12.70;99.90;;;;;;4970911;28;20824;-80
2023/05/01 02:30:04;;;;;;;4.50;3.40;;;12.70;99.90;;;;;;4990421;28;20443;-81
2023/05/01 02:32:30;;;;;;;4.97;4.10;;;12.70;99.90;;;;;;4971254;28;20451;-81
2023/05/01 02:34:56;;;;;;;5.00;3.90;;;12.70;99.90;;;;;;4966236;28;20464;-81
2023/05/01 02:37:22;;;;;;;8.87;3.70;;;12.70;99.90;;;;;;4966891;28;20922;-81
2023/05/01 02:39:48;;;;;;;6.23;4.17;;;12.60;99.90;;;;;;4972890;28;20213;-81
2023/05/01 02:42:15;;;;;;;4.30;3.90;;;12.70;99.90;;;;;;4971590;28;20556;-81
2023/05/01 02:44:56;;;;;;;6.40;4.00;;;12.60;99.90;;;;;;4972834;28;20204;-81
2023/05/01 02:47:23;;;;;;;7.37;3.90;;;12.60;99.90;;;;;;4966223;28;20461;-81
2023/05/01 02:49:50;;;;;;;9.07;3.90;;;12.60;99.90;;;;;;4976166;28;20447;-81
2023/05/01 02:52:18;;;;;;;4.30;3.90;;;12.60;99.90;;;;;;4973291;28;20443;-81
2023/05/01 02:54:44;;;;;;;8.30;4.40;;;12.70;99.90;;;;;;4968727;28;20470;-82
2023/05/01 02:57:13;;;;;;;5.47;4.70;;;12.70;99.90;;;;;;4973337;28;20520;-80
2023/05/01 02:59:41;;;;;;;4.30;3.90;;;12.70;99.90;;;;;;4974591;28;20972;-81
2023/05/01 03:02:07;;;;;;;6.70;4.10;;;12.80;99.90;;;;;;4972419;28;20457;-79
2023/05/01 03:04:32;;;;;;;9.40;4.13;;;12.80;99.90;;;;;;4969679;28;20965;-81
2023/05/01 03:06:58;;;;;;;11.70;5.87;;;12.80;99.90;;;;;;4972707;28;20199;-81
2023/05/01 03:09:23;;;;;;;9.80;6.77;;;12.80;99.90;;;;;;4973428;28;20192;-80
2023/05/01 03:11:49;;;;;;;7.57;5.30;;;12.80;99.90;;;;;;4976901;28;20184;-80
2023/05/01 03:14:15;;;;;;;15.77;8.73;;;12.80;99.90;;;;;;4988519;28;20212;-81
2023/05/01 03:16:41;;;;;;;19.73;10.47;;;12.80;99.90;;;;;;4978443;28;20183;-80
2023/05/01 03:19:06;;;;;;;17.50;10.00;;;12.80;99.90;;;;;;4978903;28;20440;-80
2023/05/01 03:21:33;;;;;;;8.67;6.10;;;12.80;99.90;;;;;;4975126;28;20619;-80
2023/05/01 03:23:58;;;;;;;9.97;6.73;;;12.80;99.90;;;;;;4972650;28;20180;-80
2023/05/01 03:26:24;;;;;;;10.80;5.00;;;12.80;99.90;;;;;;4975454;28;20432;-80
2023/05/01 03:28:50;;;;;;;10.97;6.40;;;12.80;99.90;;;;;;4975776;28;20531;-80
2023/05/01 03:31:16;;;;;;;10.80;5.70;;;12.80;99.90;;;;;;4976304;28;20440;-80
2023/05/01 03:33:41;;;;;;;9.50;5.80;;;12.80;99.90;;;;;;4976204;28;20311;-80
2023/05/01 03:36:10;;;;;;;9.83;6.20;;;12.80;99.90;;;;;;4976021;28;20215;-80
2023/05/01 03:38:35;;;;;;;9.50;5.40;;;12.90;99.90;;;;;;4972039;28;20188;-81
2023/05/01 03:41:04;;;;;;;13.30;6.47;;;12.90;99.90;;;;;;4977117;28;20949;-81
2023/05/01 03:43:30;;;;;;;15.53;6.57;;;12.90;99.90;;;;;;4970509;28;20497;-81
2023/05/01 03:45:57;;;;;;;8.17;7.10;;;12.90;99.90;;;;;;4974021;28;20866;-83
2023/05/01 03:48:25;;;;;;;12.70;6.33;;;12.90;99.90;;;;;;4978395;28;21367;-81
2023/05/01 03:50:51;;;;;;;10.20;6.00;;;12.90;99.90;;;;;;4981666;28;20430;-82
2023/05/01 03:53:17;;;;;;;10.10;5.77;;;12.90;99.90;;;;;;4975136;28;20559;-80
2023/05/01 03:55:43;;;;;;;10.53;5.40;;;12.90;99.90;;;;;;4981834;28;20470;-82
2023/05/01 03:58:09;;;;;;;6.60;5.80;;;12.90;99.90;;;;;;4980847;28;20180;-81
2023/05/01 04:00:36;;;;;;;5.83;5.17;;;12.90;99.90;;;;;;4974114;28;20463;-82
2023/05/01 04:03:02;;;;;;;8.80;5.40;;;12.90;99.90;;;;;;4995537;28;20498;-82
2023/05/01 04:05:27;;;;;;;8.17;4.87;;;12.90;99.90;;;;;;4998881;28;20530;-81
2023/05/01 04:07:53;;;;;;;7.60;5.20;;;12.90;99.90;;;;;;4985172;28;20427;-81
2023/05/01 04:10:19;;;;;;;9.57;5.57;;;12.90;99.90;;;;;;4983507;28;20204;-81
2023/05/01 04:12:45;;;;;;;4.80;4.30;;;12.90;99.90;;;;;;4986501;28;20188;-81
2023/05/01 04:15:10;;;;;;;6.43;5.00;;;12.90;99.90;;;;;;4985370;28;20446;-82
2023/05/01 04:17:36;;;;;;;5.47;4.90;;;12.90;99.90;;;;;;4984986;28;20582;-78
2023/05/01 04:20:04;;;;;;;7.37;6.00;;;12.80;99.90;;;;;;4987056;28;20670;-81
2023/05/01 04:22:30;;;;;;;8.27;4.90;;;12.80;99.90;;;;;;4986970;28;20180;-81
2023/05/01 04:24:59;;;;;;;10.50;4.90;;;12.80;99.90;;;;;;4986480;28;20908;-80
2023/05/01 04:27:24;;;;;;;5.50;4.37;;;12.90;99.90;;;;;;4984143;28;20914;-82
2023/05/01 04:29:51;;;;;;;8.40;5.20;;;12.90;99.90;;;;;;4982452;28;20454;-78
2023/05/01 04:32:16;;;;;;;6.07;4.90;;;12.80;99.90;;;;;;4986335;28;20658;-80
2023/05/01 04:34:45;;;;;;;6.37;4.30;;;12.80;99.90;;;;;;4979896;28;20483;-80
2023/05/01 04:37:11;;;;;;;8.70;5.33;;;12.90;99.90;;;;;;4985383;28;20311;-81
2023/05/01 04:39:36;;;;;;;7.23;4.73;;;12.90;99.90;;;;;;4983982;28;20435;-81
2023/05/01 04:42:03;;;;;;;7.30;4.87;;;13.00;99.90;;;;;;4983402;28;20853;-81
2023/05/01 04:44:29;;;;;;;8.20;4.77;;;13.00;99.90;;;;;;4983411;28;20203;-79
2023/05/01 04:46:55;;;;;;;10.37;5.30;;;13.00;99.90;;;;;;4975612;28;20834;-82
2023/05/01 04:49:21;;;;;;;7.47;4.40;;;13.10;99.90;;;;;;4981355;28;20451;-81
2023/05/01 04:51:46;;;;;;;4.60;4.03;;;13.10;99.90;;;;;;4985397;28;20195;-82
2023/05/01 04:54:12;;;;;;;6.20;4.80;;;13.10;99.90;;;;;;4984361;28;20490;-81
2023/05/01 04:56:37;;;;;;;5.87;4.90;;;13.30;99.90;;;;;;4985897;28;20196;-80
2023/05/01 04:59:03;;;;;;;5.60;4.60;;;13.40;99.90;;;;;;4999305;28;20247;-81
2023/05/01 05:01:29;;;;;;;5.10;4.40;;;13.50;99.90;;;;;;4982831;28;20758;-81
2023/05/01 05:03:54;;;;;;;7.17;4.70;;;13.60;99.90;;;;;;4984401;28;20196;-82
2023/05/01 05:06:20;;;;;;;6.50;5.30;;;13.80;99.90;;;;;;4982021;28;20488;-82
2023/05/01 05:08:46;;;;;;;7.00;5.00;;;13.80;99.90;;;;;;4983964;28;20190;-80
2023/05/01 05:11:11;;;;;;;6.40;5.07;;;13.80;99.90;;;;;;4984111;28;20197;-82
2023/05/01 05:13:37;;;;;;;8.70;5.50;;;13.80;99.90;;;;;;4980823;28;20189;-82
2023/05/01 05:16:03;;;;;;;6.47;5.30;;;13.80;99.90;;;;;;4984918;28;20221;-81
2023/05/01 05:18:28;;;;;;;6.53;4.73;;;13.80;99.90;;;;;;4985319;28;20216;-81
2023/05/01 05:20:54;;;;;;;9.70;5.90;;;13.80;99.90;;;;;;4979544;28;20216;-82
2023/05/01 05:23:20;;;;;;;6.97;5.53;;;13.80;99.90;;;;;;4983504;28;20189;-81
2023/05/01 05:25:45;;;;;;;11.53;4.80;;;13.80;99.90;;;;;;4983820;28;20201;-82
2023/05/01 05:28:11;;;;;;;7.43;5.60;;;13.70;99.90;;;;;;4983752;28;20448;-82
2023/05/01 05:30:37;;;;;;;5.23;4.60;;;13.70;99.90;;;;;;4980134;28;20194;-80
2023/05/01 05:33:02;;;;;;;5.10;4.60;;;13.80;99.90;;;;;;4980555;28;20185;-80
2023/05/01 05:35:28;;;;;;;6.50;5.63;;;13.80;99.90;;;;;;4981644;28;20209;-81
2023/05/01 05:37:53;;;;;;;6.90;4.70;;;13.80;99.90;;;;;;4999620;28;20191;-80
2023/05/01 05:40:19;;;;;;;7.80;5.73;;;13.80;99.90;;;;;;4983139;28;20317;-81
2023/05/01 05:42:44;;;;;;;5.70;5.10;;;13.80;99.90;;;;;;4984651;28;20705;-78
2023/05/01 05:45:10;;;;;;;9.23;5.33;;;13.90;99.90;;;;;;4979995;28;20217;-81
2023/05/01 05:47:36;;;;;;;8.17;5.50;;;13.80;99.90;;;;;;4985251;28;20181;-79
2023/05/01 05:50:02;;;;;;;8.30;6.30;;;13.80;99.90;;;;;;4986098;28;20440;-81
2023/05/01 05:52:28;;;;;;;8.07;6.20;;;13.80;99.90;;;;;;4984305;28;20189;-81
2023/05/01 05:54:53;;;;;;;6.03;5.43;;;13.90;99.90;;;;;;4974695;28;20476;-81
2023/05/01 05:57:19;;;;;;;7.33;5.53;;;13.90;99.90;;;;;;4982675;28;20213;-79
2023/05/01 05:59:44;;;;;;;9.77;5.20;;;13.90;99.90;;;;;;4982983;28;20199;-81
2023/05/01 06:02:10;;;;;;;8.33;5.57;;;13.90;99.90;;;;;;4983277;28;20192;-80
2023/05/01 06:04:36;;;;;;;6.23;5.13;;;13.90;99.90;;;;;;4985144;28;20221;-78
2023/05/01 06:07:01;;;;;;;7.23;5.43;;;14.00;99.90;;;;;;4986343;28;20248;-79
2023/05/01 06:09:27;;;;;;;7.70;5.60;;;14.10;99.90;;;;;;5003123;28;20206;-79
2023/05/01 06:11:52;;;;;;;8.23;6.50;;;14.20;99.90;;;;;;4982610;28;20244;-79
2023/05/01 06:14:18;;;;;;;7.63;6.23;;;14.30;99.90;;;;;;4984121;28;20224;-79
2023/05/01 06:16:43;;;;;;;6.00;5.40;;;14.30;99.90;;;;;;4984845;28;20248;-79
2023/05/01 06:19:11;;;;;;;7.60;6.17;;;14.40;99.90;;;;;;4984627;28;20686;-79
2023/05/01 06:21:36;;;;;;;7.87;6.30;;;14.50;99.90;;;;;;4986228;28;20239;-79
2023/05/01 06:24:02;;;;;;;9.63;6.87;;;14.60;99.90;;;;;;4983160;28;20446;-79
2023/05/01 06:26:28;;;;;;;7.00;5.97;;;14.60;99.90;;;;;;4987348;28;20192;-79
2023/05/01 06:28:53;;;;;;;7.53;5.87;;;14.60;99.90;;;;;;4981569;28;20338;-79
2023/05/01 06:31:19;;;;;;;7.33;6.30;;;14.60;99.90;;;;;;4983173;28;20191;-79
2023/05/01 06:33:45;;;;;;;8.00;5.83;;;14.60;99.90;;;;;;4983509;28;20655;-79
2023/05/01 06:36:10;;;;;;;8.23;5.90;;;14.60;99.90;;;;;;4986546;28;20274;-79
2023/05/01 06:38:36;;;;;;;8.50;6.20;;;14.70;99.90;;;;;;4984311;28;20179;-80
2023/05/01 06:41:04;;;;;;;11.40;5.60;;;14.80;99.90;;;;;;4986108;28;20192;-81
2023/05/01 06:43:30;;;;;;;8.17;5.40;;;14.90;99.90;;;;;;4984155;28;20669;-79
2023/05/01 06:45:56;;;;;;;6.63;5.30;;;15.10;99.90;;;;;;4979157;28;20518;-80
2023/05/01 06:48:21;;;;;;;7.50;5.60;;;15.20;99.90;;;;;;4984313;28;20451;-79
2023/05/01 06:50:47;;;;;;;6.57;4.80;;;15.40;99.90;;;;;;4985355;28;20474;-80
2023/05/01 06:53:12;;;;;;;5.80;5.20;;;15.60;99.90;;;;;;4982850;28;20204;-79
2023/05/01 06:55:38;;;;;;;5.63;5.07;;;15.80;99.90;;;;;;4977923;28;20217;-80
2023/05/01 06:58:05;;;;;;;5.20;4.70;;;16.10;99.90;;;;;;4986069;28;20255;-80
2023/05/01 07:00:31;;;;;;;7.37;5.20;;;16.30;99.90;;;;;;4978176;28;20177;-80
2023/05/01 07:02:56;;;;;;;6.70;5.50;;;16.70;99.90;;;;;;4976979;28;20443;-81
2023/05/01 07:05:22;;;;;;;11.00;5.40;;;17.00;99.90;;;;;;4996277;28;20991;-79
2023/05/01 07:07:48;;;;;;;5.87;4.27;;;17.30;99.90;;;;;;4978311;28;20230;-79
2023/05/01 07:10:14;;;;;;;4.87;4.30;;;17.70;99.90;;;;;;4984284;28;20211;-80
2023/05/01 07:12:40;;;;;;;6.80;4.60;;;18.20;99.90;;;;;;4998004;28;20441;-80
2023/05/01 07:15:06;;;;;;;6.93;4.80;;;19.20;99.90;;;;;;4984247;28;20473;-80
2023/05/01 07:17:32;;;;;;;5.03;4.63;;;19.90;99.90;;;;;;4981639;28;20275;-81
2023/05/01 07:19:59;;;;;;;6.83;4.80;;;20.90;99.90;;;;;;4997401;28;20440;-81
2023/05/01 07:22:25;;;;;;;10.33;4.60;;;21.90;99.90;;;;;;4979153;28;20472;-80
2023/05/01 07:24:51;;;;;;;5.43;4.47;;;22.30;99.90;;;;;;4987607;28;20443;-80
2023/05/01 07:27:16;;;;;;;5.77;4.27;;;22.60;99.90;;;;;;4984963;28;20193;-81
2023/05/01 07:29:43;;;;;;;7.83;3.93;;;23.30;99.90;;;;;;4987914;28;20190;-81
2023/05/01 07:32:08;;;;;;;5.13;4.50;;;24.10;99.90;;;;;;4987400;28;20198;-80
2023/05/01 07:34:34;;;;;;;3.97;3.53;;;25.10;99.90;;;;;;4986243;28;20479;-82
2023/05/01 07:37:00;;;;;;;4.30;3.90;;;25.40;99.90;;;;;;5001724;28;20239;-81
2023/05/01 07:39:25;;;;;;;5.40;3.60;;;26.10;99.90;;;;;;4982787;28;20180;-80
2023/05/01 07:41:51;;;;;;;5.40;3.23;;;26.20;99.90;;;;;;4987727;28;20215;-81
2023/05/01 07:44:17;;;;;;;5.07;3.80;;;27.30;99.90;;;;;;4987277;28;20726;-81
2023/05/01 07:46:42;;;;;;;6.93;3.50;;;28.30;99.90;;;;;;4987705;28;20189;-81
2023/05/01 07:49:08;;;;;;;5.60;3.90;;;28.50;99.90;;;;;;4986190;28;20192;-81
2023/05/01 07:51:33;;;;;;;3.80;3.50;;;28.40;99.90;;;;;;4999188;28;20196;-81
2023/05/01 07:54:03;;;;;;;3.47;3.17;;;28.80;99.90;;;;;;4980387;28;20180;-79
2023/05/01 07:56:32;;;;;;;4.40;3.97;;;29.20;99.90;;;;;;4996199;28;21569;-81
2023/05/01 07:58:58;;;;;;;4.43;4.00;;;29.30;99.90;;;;;;4986069;28;20443;-81
2023/05/01 08:01:24;;;;;;;3.97;3.53;;;29.60;99.90;;;;;;4983855;28;20443;-81
2023/05/01 08:03:50;;;;;;;6.97;4.00;;;30.30;99.90;;;;;;4997960;28;20455;-80
2023/05/01 08:06:15;;;;;;;7.43;4.00;;;31.10;99.90;;;;;;4981691;28;20446;-81
2023/05/01 08:08:41;;;;;;;4.10;3.70;;;31.90;99.90;;;;;;4996144;28;20250;-81
2023/05/01 08:11:08;;;;;;;3.87;3.50;;;32.70;99.90;;;;;;4986643;28;20555;-82
2023/05/01 08:13:34;;;;;;;4.70;3.23;;;33.70;99.90;;;;;;4982478;28;20888;-82
2023/05/01 08:16:03;;;;;;;4.60;3.83;;;34.40;99.90;;;;;;4981326;28;20567;-79
2023/05/01 08:18:29;;;;;;;3.13;2.83;;;35.00;99.90;;;;;;4981657;28;20196;-81
2023/05/01 08:20:55;;;;;;;4.70;3.20;;;35.70;99.90;;;;;;4980352;28;20471;-80
2023/05/01 08:23:21;;;;;;;4.73;4.23;;;36.30;99.90;;;;;;4977001;28;20454;-81
2023/05/01 08:25:49;;;;;;;4.97;3.10;;;36.90;99.90;;;;;;4982551;28;20215;-81
2023/05/01 08:28:15;;;;;;;4.07;3.03;;;38.20;99.90;;;;;;4980181;28;20256;-82
2023/05/01 08:30:41;;;;;;;3.53;2.97;;;39.90;99.90;;;;;;4978188;28;20863;-82
2023/05/01 08:33:07;;;;;;;5.83;3.07;;;41.20;99.90;;;;;;4980652;28;20431;-82
2023/05/01 08:35:32;;;;;;;2.93;2.70;;;42.30;99.90;;;;;;4979881;28;20211;-82
2023/05/01 08:37:58;;;;;;;4.60;2.80;;;43.10;99.90;;;;;;4982791;28;20180;-82
2023/05/01 08:40:25;;;;;;;4.60;2.67;;;44.30;99.90;;;;;;4977350;28;20219;-82
2023/05/01 08:42:50;;;;;;;3.23;2.93;;;45.00;99.90;;;;;;4991660;28;20199;-82
2023/05/01 08:45:20;;;;;;;3.20;2.77;;;45.90;99.90;;;;;;4981265;28;20459;-81
2023/05/01 08:47:49;;;;;;;4.90;2.57;;;46.10;99.90;;;;;;4979103;28;20195;-81
2023/05/01 08:50:16;;;;;;;2.93;2.73;;;45.70;99.90;;;;;;4977699;28;20443;-81
2023/05/01 08:52:42;;;;;;;5.40;2.97;;;44.10;98.90;;;;;;4980856;28;20447;-81
2023/05/01 08:55:19;;;;;;;4.40;2.77;;;42.30;94.60;;;;;;4998327;28;20455;-81
2023/05/01 08:57:46;;;;;;;4.20;3.10;;;40.80;92.30;;;;;;4975662;28;20435;-80
2023/05/01 09:00:20;;;;;;;4.27;3.00;;;40.40;90.40;;;;;;4973284;28;20471;-81
2023/05/01 09:02:50;;;;;;;4.40;2.63;;;40.60;90.00;;;;;;4979945;28;20449;-81
2023/05/01 09:05:17;;;;;;;4.50;2.93;;;40.00;88.00;;;;;;4978552;28;20479;-81
2023/05/01 09:07:45;;;;;;;3.53;3.23;;;39.00;83.10;;;;;;4983953;28;20450;-81
2023/05/01 09:10:16;;;;;;;3.50;2.63;;;38.60;82.10;;;;;;4984933;28;20440;-81
2023/05/01 09:12:45;;;;;;;4.00;2.90;;;38.00;79.00;;;;;;4976447;28;20512;-80
2023/05/01 09:15:11;;;;;;;5.00;3.93;;;37.60;78.70;;;;;;4985637;28;20482;-81
2023/05/01 09:17:38;;;;;;;3.53;2.90;;;37.90;81.40;;;;;;4978322;28;20459;-80
2023/05/01 09:20:05;;;;;;;5.27;3.17;;;38.50;83.30;;;;;;4978473;28;20470;-80
2023/05/01 09:22:31;;;;;;;4.60;3.60;;;39.30;85.90;;;;;;4983383;28;20440;-81
2023/05/01 09:24:58;;;;;;;3.53;2.50;;;40.60;88.70;;;;;;4982416;28;20495;-82
2023/05/01 09:27:25;;;;;;;3.23;2.47;;;41.50;90.60;;;;;;4986232;28;20500;-81
2023/05/01 09:29:51;;;;;;;4.40;2.63;;;41.70;88.90;;;;;;4986434;28;20482;-81
2023/05/01 09:32:23;;;;;;;2.83;2.07;;;40.40;81.20;;;;;;4978412;28;20981;-81
2023/05/01 09:34:51;;;;;;;2.27;2.07;;;39.40;75.00;;;;;;4983577;28;20232;-81
2023/05/01 09:37:28;;;;;;;2.87;2.50;;;38.50;71.60;;;;;;4970536;28;20825;-81
2023/05/01 09:40:06;;;;;;;3.70;2.70;;;38.00;69.80;;;;;;4978378;28;20443;-81
2023/05/01 09:42:33;;;;;;;3.73;2.83;;;37.60;68.80;;;;;;4973097;28;20466;-80
2023/05/01 09:45:00;;;;;;;4.63;2.60;;;37.40;67.30;;;;;;4981716;28;20526;-80
2023/05/01 09:47:27;;;;;;;4.00;3.07;;;36.90;67.20;;;;;;4977265;28;20435;-80
2023/05/01 09:49:55;;;;;;;3.10;2.70;;;36.70;66.40;;;;;;4981054;28;20437;-81
2023/05/01 09:52:21;;;;;;;5.90;2.80;;;36.40;66.80;;;;;;4976245;28;20471;-81
2023/05/01 09:54:47;;;;;;;3.60;2.60;;;36.00;64.70;;;;;;4981634;28;20467;-80
2023/05/01 09:57:12;;;;;;;2.90;2.13;;;35.40;63.60;;;;;;4976895;28;20490;-81
2023/05/01 09:59:38;;;;;;;3.60;2.90;;;34.90;62.40;;;;;;4974509;28;20237;-81
2023/05/01 10:02:04;;;;;;;3.17;2.67;;;34.60;62.60;;;;;;4978892;28;20183;-82
2023/05/01 10:04:33;;;;;;;3.30;3.00;;;34.20;62.00;;;;;;4980507;28;20294;-81
2023/05/01 10:07:14;;;;;;;3.33;2.97;;;33.80;61.60;;;;;;4982945;28;20197;-82
2023/05/01 10:09:42;;;;;;;4.30;3.30;;;33.80;62.00;;;;;;4985860;28;20848;-82
2023/05/01 10:12:08;;;;;;;3.13;2.83;;;33.50;61.80;;;;;;4981345;28;20442;-81
2023/05/01 10:14:48;;;;;;;4.40;3.40;;;33.50;62.80;;;;;;4983830;28;20479;-80
2023/05/01 10:17:19;;;;;;;3.83;3.20;;;33.70;65.10;;;;;;4978493;28;20184;-82
2023/05/01 10:19:46;;;;;;;6.90;3.47;;;33.80;65.10;;;;;;4983425;28;20439;-81
2023/05/01 10:22:12;;;;;;;3.73;3.43;;;34.10;68.70;;;;;;4981083;28;20448;-82
2023/05/01 10:24:39;;;;;;;5.57;3.50;;;34.30;87.80;;;;;;4983762;28;20470;-81
2023/05/01 10:27:06;;;;;;;3.83;3.53;;;34.40;70.50;;;;;;4981973;28;20467;-80
2023/05/01 10:29:35;;;;;;;4.90;3.60;;;34.60;72.70;;;;;;4996476;28;20439;-81
2023/05/01 10:32:03;;;;;;;3.87;3.23;;;34.90;72.90;;;;;;4996491;28;20451;-81
2023/05/01 10:34:31;;;;;;;4.70;3.50;;;35.20;74.80;;;;;;4981447;28;20467;-81
2023/05/01 10:37:01;;;;;;;5.00;3.33;;;35.50;77.10;;;;;;4980388;28;20447;-81
2023/05/01 10:39:35;;;;;;;4.20;3.00;;;36.10;79.80;;;;;;4977123;28;20444;-81
2023/05/01 10:42:13;;;;;;;3.77;3.40;;;36.40;80.60;;;;;;4968931;28;20546;-81
2023/05/01 10:44:39;;;;;;;4.90;3.63;;;36.80;93.80;;;;;;4972501;28;20455;-80
2023/05/01 10:47:23;;;;;;;2.93;2.73;;;37.10;81.70;;;;;;4972763;28;20453;-80
2023/05/01 10:50:11;;;;;;;3.87;3.03;;;37.40;80.70;;;;;;4973886;28;20431;-81
2023/05/01 10:53:08;;;;;;;5.63;3.20;;;37.80;80.20;;;;;;4972682;28;20439;-80
2023/05/01 10:55:46;;;;;;;4.00;3.10;;;37.80;78.10;;;;;;4974193;28;20448;-81
2023/05/01 10:58:32;;;;;;;5.63;2.90;;;37.70;76.90;;;;;;4969526;28;20478;-81
2023/05/01 11:01:33;;;;;;;2.60;2.40;;;37.70;75.30;;;;;;4976907;28;20518;-81
2023/05/01 11:04:03;;;;;;;2.97;2.67;;;37.80;73.60;;;;;;4972004;28;20443;-81
2023/05/01 11:06:29;;;;;;;3.03;2.70;;;37.60;72.20;;;;;;4969754;28;20470;-81
2023/05/01 11:08:56;;;;;;;4.33;3.30;;;37.50;70.30;;;;;;4972992;28;20951;-82
2023/05/01 11:11:21;;;;;;;6.37;3.73;;;37.40;68.80;;;;;;4974799;28;20443;-82
2023/05/01 11:14:03;;;;;;;3.13;2.83;;;37.40;68.40;;;;;;4974725;28;20547;-81
2023/05/01 11:16:38;;;;;;;2.63;2.30;;;37.60;69.00;;;;;;4971025;28;20683;-80
2023/05/01 11:19:09;;;;;;;4.07;2.93;;;37.80;71.20;;;;;;4972273;28;22314;-81
2023/05/01 11:21:37;;;;;;;4.53;3.07;;;38.10;69.90;;;;;;4973000;28;20471;-82
2023/05/01 11:24:03;;;;;;;4.73;3.20;;;38.40;70.10;;;;;;4969273;28;20880;-81
2023/05/01 11:26:30;;;;;;;2.47;2.20;;;38.50;70.00;;;;;;4973999;28;20424;-81
2023/05/01 11:29:00;;;;;;;3.80;3.03;;;38.40;67.50;;;;;;4963502;28;20450;-82
2023/05/01 11:31:26;;;;;;;3.10;2.77;;;38.20;66.20;;;;;;4969639;28;21102;-82
2023/05/01 11:33:55;;;;;;;3.63;2.60;;;38.20;66.30;;;;;;4971088;28;20439;-82
2023/05/01 11:36:21;;;;;;;2.77;2.13;;;38.10;65.00;;;;;;4966823;28;20419;-82
2023/05/01 11:38:58;;;;;;;5.70;2.90;;;37.80;62.10;;;;;;4966706;28;20476;-83
2023/05/01 11:41:25;;;;;;;3.80;3.50;;;37.70;62.10;;;;;;4962727;28;20219;-82
2023/05/01 11:43:57;;;;;;;5.23;4.47;;;37.90;62.50;;;;;;4975746;28;20424;-82
2023/05/01 11:46:27;;;;;;;5.10;4.10;;;37.90;63.50;;;;;;4976796;28;20431;-81
2023/05/01 11:48:58;;;;;;;4.60;4.13;;;37.00;58.40;;;;;;4976444;28;20412;-81
2023/05/01 11:51:25;;;;;;;5.70;5.20;;;36.10;56.00;;;;;;4976223;28;20451;-82
2023/05/01 11:54:02;;;;;;;6.50;5.90;;;35.10;54.80;;;;;;4977192;28;20522;-82
2023/05/01 11:56:28;;;;;;;9.07;6.20;;;34.10;52.60;;;;;;4978529;28;20415;-83
2023/05/01 11:58:59;;;;;;;7.70;7.00;;;33.40;51.10;;;;;;4979111;28;20937;-83
2023/05/01 12:01:34;;;;;;;6.13;5.53;;;32.70;51.50;;;;;;4977548;28;20471;-83
2023/05/01 12:04:00;;;;;;;6.70;6.00;;;32.10;50.70;;;;;;4979874;28;20443;-82
2023/05/01 12:06:45;;;;;;;8.93;7.07;;;31.60;50.60;;;;;;4964461;28;20416;-83
2023/05/01 12:09:17;;;;;;;7.73;6.33;;;30.80;50.70;;;;;;4971089;28;20952;-83
2023/05/01 12:11:44;;;;;;;9.70;6.90;;;29.90;49.70;;;;;;4977323;28;20965;-82
2023/05/01 12:14:11;;;;;;;7.00;6.23;;;29.30;49.70;;;;;;4975157;28;20456;-83
2023/05/01 12:16:39;;;;;;;8.77;6.90;;;28.90;50.70;;;;;;4963710;28;20425;-83
2023/05/01 12:19:05;;;;;;;10.40;5.80;;;28.60;51.60;;;;;;4980801;28;20443;-81
2023/05/01 12:21:31;;;;;;;6.53;5.63;;;28.30;51.90;;;;;;4984153;28;20841;-82
2023/05/01 12:24:06;;;;;;;9.77;6.47;;;28.10;52.20;;;;;;4979108;28;20424;-81
2023/05/01 12:26:31;;;;;;;7.90;7.10;;;27.90;52.60;;;;;;4977555;28;23136;-82
2023/05/01 12:28:59;;;;;;;8.57;6.50;;;27.80;53.50;;;;;;4978591;28;20436;-82
2023/05/01 12:31:26;;;;;;;6.63;6.03;;;27.80;54.80;;;;;;4971819;28;20551;-82
2023/05/01 12:33:56;;;;;;;6.30;5.70;;;27.80;55.60;;;;;;4978516;28;20431;-81
2023/05/01 12:36:26;;;;;;;7.10;5.47;;;27.90;57.20;;;;;;4978227;28;20451;-82
2023/05/01 12:39:05;;;;;;;5.63;5.13;;;27.90;58.70;;;;;;4983361;28;20491;-82
2023/05/01 12:41:39;;;;;;;8.00;5.60;;;27.90;59.50;;;;;;4981756;28;20471;-82
2023/05/01 12:44:25;;;;;;;5.20;4.50;;;28.00;59.50;;;;;;4982741;28;20556;-82
2023/05/01 12:47:03;;;;;;;6.10;5.50;;;28.60;63.50;;;;;;4978743;28;20442;-81
2023/05/01 12:49:30;;;;;;;5.80;4.37;;;29.40;67.20;;;;;;4981486;28;20427;-84
2023/05/01 12:51:59;;;;;;;5.40;4.90;;;30.40;72.40;;;;;;4982823;28;20478;-83